createdAt,value
2023-04-15T00:01:33.879Z,8.26
2023-04-15T00:03:37.040Z,8.23
2023-04-15T00:05:41.530Z,8.17
2023-04-15T00:07:44.950Z,8.12
2023-04-15T00:09:47.692Z,8.10
2023-04-15T00:11:51.767Z,8.08
2023-04-15T00:13:54.543Z,8.03
2023-04-15T00:15:57.314Z,8.00
2023-04-15T00:18:00.165Z,7.99
2023-04-15T00:20:06.423Z,7.99
2023-04-15T00:22:10.717Z,7.98
2023-04-15T00:24:13.755Z,7.96
2023-04-15T00:26:16.550Z,7.95
2023-04-15T00:28:20.248Z,7.92
2023-04-15T00:30:23.830Z,7.88
2023-04-15T00:32:26.779Z,7.80
2023-04-15T00:34:29.877Z,7.71
2023-04-15T00:36:33.858Z,7.67
2023-04-15T00:38:39.354Z,7.64
2023-04-15T00:40:42.787Z,7.63
2023-04-15T00:42:45.762Z,7.62
2023-04-15T00:44:49.927Z,7.63
2023-04-15T00:46:53.154Z,7.66
2023-04-15T00:48:56.528Z,7.69
2023-04-15T00:50:59.414Z,7.70
2023-04-15T00:53:02.539Z,7.69
2023-04-15T00:55:08.874Z,7.66
2023-04-15T00:57:11.769Z,7.66
2023-04-15T00:59:15.568Z,7.66
2023-04-15T01:01:22.148Z,7.60
2023-04-15T01:03:25.395Z,7.58
2023-04-15T01:05:30.233Z,7.54
2023-04-15T01:07:33.147Z,7.56
2023-04-15T01:09:36.191Z,7.60
2023-04-15T01:11:40.410Z,7.54
2023-04-15T01:13:44.599Z,7.54
2023-04-15T01:15:47.433Z,7.52
2023-04-15T01:17:50.974Z,7.53
2023-04-15T01:19:54.043Z,7.54
2023-04-15T01:21:57.580Z,7.59
2023-04-15T01:24:00.732Z,7.59
2023-04-15T01:26:05.013Z,7.56
2023-04-15T01:28:09.491Z,7.54
2023-04-15T01:30:12.554Z,7.44
2023-04-15T01:32:15.563Z,7.40
2023-04-15T01:34:19.671Z,7.37
2023-04-15T01:36:22.620Z,7.46
2023-04-15T01:38:31.311Z,7.41
2023-04-15T01:40:36.457Z,7.32
2023-04-15T01:42:40.965Z,7.24
2023-04-15T01:44:44.807Z,7.24
2023-04-15T01:46:48.354Z,7.23
2023-04-15T01:48:51.619Z,7.17
2023-04-15T01:50:58.265Z,7.15
2023-04-15T01:53:01.113Z,7.13
2023-04-15T01:55:04.309Z,7.07
2023-04-15T01:57:07.543Z,7.05
2023-04-15T01:59:12.169Z,7.05
2023-04-15T02:01:16.869Z,7.08
2023-04-15T02:03:19.875Z,7.09
2023-04-15T02:05:22.729Z,7.08
2023-04-15T02:07:25.491Z,7.17
2023-04-15T02:09:28.540Z,7.08
2023-04-15T02:11:31.347Z,7.02
2023-04-15T02:13:34.276Z,7.04
2023-04-15T02:15:38.552Z,6.97
2023-04-15T02:17:45.633Z,6.91
2023-04-15T02:19:50.204Z,6.83
2023-04-15T02:21:53.027Z,6.84
2023-04-15T02:23:55.994Z,6.84
2023-04-15T02:25:59.874Z,6.87
2023-04-15T02:28:02.691Z,6.85
2023-04-15T02:30:07.207Z,6.87
2023-04-15T02:32:13.044Z,6.91
2023-04-15T02:34:16.067Z,6.89
2023-04-15T02:36:21.891Z,6.84
2023-04-15T02:38:24.790Z,6.82
2023-04-15T02:40:27.594Z,6.88
2023-04-15T02:42:31.904Z,6.88
2023-04-15T02:44:36.749Z,6.86
2023-04-15T02:46:41.251Z,6.84
2023-04-15T02:48:45.829Z,6.81
2023-04-15T02:50:48.886Z,6.78
2023-04-15T02:52:52.995Z,6.70
2023-04-15T02:55:00.399Z,6.69
2023-04-15T02:57:06.056Z,6.61
2023-04-15T02:59:09.148Z,6.67
2023-04-15T03:01:12.094Z,6.69
2023-04-15T03:03:15.740Z,6.70
2023-04-15T03:05:19.992Z,6.70
2023-04-15T03:07:25.930Z,6.72
2023-04-15T03:09:29.629Z,6.73
2023-04-15T03:11:34.860Z,6.70
2023-04-15T03:13:41.753Z,6.69
2023-04-15T03:15:51.422Z,6.74
2023-04-15T03:17:54.249Z,6.79
2023-04-15T03:19:57.227Z,6.78
2023-04-15T03:22:01.439Z,6.67
2023-04-15T03:24:04.643Z,6.60
2023-04-15T03:26:07.504Z,6.58
2023-04-15T03:28:10.444Z,6.60
2023-04-15T03:30:14.201Z,6.62
2023-04-15T03:32:17.469Z,6.64
2023-04-15T03:34:20.414Z,6.62
2023-04-15T03:36:23.224Z,6.61
2023-04-15T03:38:27.452Z,6.62
2023-04-15T03:40:30.405Z,6.61
2023-04-15T03:42:33.265Z,6.60
2023-04-15T03:44:36.186Z,6.59
2023-04-15T03:46:39.121Z,6.56
2023-04-15T03:48:41.923Z,6.56
2023-04-15T03:50:44.787Z,6.57
2023-04-15T03:52:48.707Z,6.58
2023-04-15T03:54:54.312Z,6.50
2023-04-15T03:56:57.610Z,6.45
2023-04-15T03:59:00.490Z,6.43
2023-04-15T04:01:03.506Z,6.43
2023-04-15T04:03:06.547Z,6.43
2023-04-15T04:05:10.140Z,6.39
2023-04-15T04:07:16.947Z,6.38
2023-04-15T04:09:19.765Z,6.33
2023-04-15T04:11:23.880Z,6.31
2023-04-15T04:13:26.677Z,6.31
2023-04-15T04:15:29.499Z,6.31
2023-04-15T04:17:32.320Z,6.27
2023-04-15T04:19:35.274Z,6.24
2023-04-15T04:21:39.558Z,6.24
2023-04-15T04:23:42.376Z,6.25
2023-04-15T04:25:45.115Z,6.25
2023-04-15T04:27:49.246Z,6.26
2023-04-15T04:29:52.058Z,6.23
2023-04-15T04:31:54.960Z,6.23
2023-04-15T04:33:57.764Z,6.22
2023-04-15T04:36:00.554Z,6.16
2023-04-15T04:38:03.708Z,6.13
2023-04-15T04:40:08.177Z,6.13
2023-04-15T04:42:11.069Z,6.08
2023-04-15T04:44:15.210Z,6.03
2023-04-15T04:46:18.072Z,5.97
2023-04-15T04:48:20.872Z,6.01
2023-04-15T04:50:23.672Z,5.99
2023-04-15T04:52:26.465Z,5.98
2023-04-15T04:54:30.689Z,6.02
2023-04-15T04:56:34.340Z,6.05
2023-04-15T04:58:38.112Z,6.08
2023-04-15T05:00:42.837Z,6.10
2023-04-15T05:02:46.283Z,6.09
2023-04-15T05:04:50.070Z,6.09
2023-04-15T05:06:52.942Z,6.11
2023-04-15T05:08:56.664Z,6.17
2023-04-15T05:10:59.576Z,6.18
2023-04-15T05:13:02.468Z,6.19
2023-04-15T05:15:06.603Z,6.23
2023-04-15T05:17:11.286Z,6.18
2023-04-15T05:19:14.043Z,6.14
2023-04-15T05:21:16.904Z,6.18
2023-04-15T05:23:20.659Z,6.23
2023-04-15T05:25:23.519Z,6.26
2023-04-15T05:27:26.627Z,6.28
2023-04-15T05:29:29.506Z,6.31
2023-04-15T05:31:32.535Z,6.34
2023-04-15T05:33:37.542Z,6.39
2023-04-15T05:35:40.571Z,6.40
2023-04-15T05:37:43.613Z,6.46
2023-04-15T05:39:46.431Z,6.52
2023-04-15T05:41:49.235Z,6.57
2023-04-15T05:43:52.049Z,6.63
2023-04-15T05:45:54.843Z,6.62
2023-04-15T05:47:57.739Z,6.68
2023-04-15T05:50:01.978Z,6.71
2023-04-15T05:52:05.066Z,6.79
2023-04-15T05:54:07.953Z,6.92
2023-04-15T05:56:10.734Z,6.99
2023-04-15T05:58:13.606Z,7.06
2023-04-15T06:00:17.057Z,7.22
2023-04-15T06:02:20.101Z,7.28
2023-04-15T06:04:23.167Z,7.37
2023-04-15T06:06:27.639Z,7.38
2023-04-15T06:08:30.553Z,7.43
2023-04-15T06:10:36.482Z,7.53
2023-04-15T06:12:39.564Z,7.55
2023-04-15T06:14:42.722Z,7.63
2023-04-15T06:16:45.571Z,7.66
2023-04-15T06:18:48.366Z,7.64
2023-04-15T06:20:51.701Z,7.76
2023-04-15T06:22:56.296Z,7.82
2023-04-15T06:24:59.197Z,7.85
2023-04-15T06:27:02.353Z,7.86
2023-04-15T06:29:05.158Z,7.77
2023-04-15T06:31:08.113Z,7.88
2023-04-15T06:33:11.136Z,8.02
2023-04-15T06:35:13.963Z,8.08
2023-04-15T06:37:19.662Z,8.15
2023-04-15T06:39:23.862Z,8.19
2023-04-15T06:41:29.656Z,8.26
2023-04-15T06:43:32.937Z,8.31
2023-04-15T06:45:35.999Z,8.38
2023-04-15T06:47:38.953Z,8.41
2023-04-15T06:49:43.021Z,8.46
2023-04-15T06:51:45.835Z,8.52
2023-04-15T06:53:48.867Z,8.60
2023-04-15T06:55:53.115Z,8.66
2023-04-15T06:57:55.905Z,8.74
2023-04-15T06:59:58.752Z,8.94
2023-04-15T07:02:01.570Z,9.05
2023-04-15T07:04:04.432Z,9.05
2023-04-15T07:06:07.681Z,9.25
2023-04-15T07:08:10.800Z,9.46
2023-04-15T07:10:14.804Z,9.49
2023-04-15T07:12:19.114Z,9.71
2023-04-15T07:14:22.100Z,9.57
2023-04-15T07:16:25.480Z,9.50
2023-04-15T07:18:29.516Z,9.47
2023-04-15T07:20:32.420Z,9.37
2023-04-15T07:22:35.608Z,9.46
2023-04-15T07:24:38.617Z,9.47
2023-04-15T07:26:41.447Z,9.41
2023-04-15T07:28:46.405Z,9.51
2023-04-15T07:30:50.084Z,9.71
2023-04-15T07:32:53.161Z,9.75
2023-04-15T07:34:55.923Z,9.79
2023-04-15T07:36:58.912Z,9.77
2023-04-15T07:39:03.686Z,9.84
2023-04-15T07:41:06.957Z,9.91
2023-04-15T07:43:09.962Z,9.93
2023-04-15T07:45:14.308Z,10.01
2023-04-15T07:47:21.002Z,10.08
2023-04-15T07:49:24.272Z,10.06
2023-04-15T07:51:27.242Z,10.00
2023-04-15T07:53:30.424Z,9.99
2023-04-15T07:55:33.213Z,9.87
2023-04-15T07:57:36.295Z,9.85
2023-04-15T07:59:39.025Z,9.96
2023-04-15T08:01:44.014Z,9.87
2023-04-15T08:03:47.205Z,9.93
2023-04-15T08:05:52.456Z,9.90
2023-04-15T08:07:56.509Z,9.94
2023-04-15T08:09:59.346Z,10.03
2023-04-15T08:12:02.219Z,10.00
2023-04-15T08:14:05.157Z,10.02
2023-04-15T08:16:28.752Z,10.24
2023-04-15T08:18:32.932Z,10.33
2023-04-15T08:20:36.074Z,10.42
2023-04-15T08:22:38.942Z,10.47
2023-04-15T08:24:42.147Z,10.66
2023-04-15T08:26:45.029Z,10.88
2023-04-15T08:28:48.428Z,10.94
2023-04-15T08:30:51.609Z,11.05
2023-04-15T08:32:54.523Z,11.20
2023-04-15T08:34:58.685Z,11.27
2023-04-15T08:37:01.597Z,11.26
2023-04-15T08:39:05.035Z,11.12
2023-04-15T08:41:13.312Z,11.18
2023-04-15T08:43:22.489Z,11.35
2023-04-15T08:45:26.362Z,11.34
2023-04-15T08:47:32.001Z,11.55
2023-04-15T08:49:40.173Z,11.69
2023-04-15T08:51:47.569Z,11.53
2023-04-15T08:53:51.493Z,11.70
2023-04-15T08:55:58.344Z,11.66
2023-04-15T08:58:02.861Z,11.58
2023-04-15T09:00:07.548Z,11.87
2023-04-15T09:02:10.628Z,12.05
2023-04-15T09:04:13.526Z,12.17
2023-04-15T09:06:17.831Z,12.18
2023-04-15T09:08:22.347Z,12.11
2023-04-15T09:10:25.229Z,12.21
2023-04-15T09:12:29.173Z,12.35
2023-04-15T09:14:32.586Z,12.44
2023-04-15T09:17:00.015Z,12.72
2023-04-15T09:19:22.680Z,12.89
2023-04-15T09:21:25.891Z,13.07
2023-04-15T09:23:30.088Z,13.24
2023-04-15T09:25:34.967Z,13.28
2023-04-15T09:27:38.372Z,13.10
2023-04-15T09:29:42.816Z,13.13
2023-04-15T09:31:48.202Z,13.31
2023-04-15T09:33:57.357Z,13.41
2023-04-15T09:36:03.355Z,13.33
2023-04-15T09:38:07.535Z,13.41
2023-04-15T09:40:13.447Z,13.40
2023-04-15T09:42:17.549Z,13.59
2023-04-15T09:44:27.074Z,13.71
2023-04-15T09:46:43.023Z,13.84
2023-04-15T09:48:46.069Z,13.77
2023-04-15T09:50:50.278Z,13.75
2023-04-15T09:52:53.118Z,13.74
2023-04-15T09:54:59.354Z,13.69
2023-04-15T09:57:08.968Z,13.61
2023-04-15T09:59:12.088Z,13.69
2023-04-15T10:01:15.108Z,14.02
2023-04-15T10:03:22.534Z,14.18
2023-04-15T10:05:25.896Z,14.03
2023-04-15T10:07:29.646Z,13.93
2023-04-15T10:09:33.282Z,14.08
2023-04-15T10:11:36.735Z,14.04
2023-04-15T10:13:41.372Z,14.12
2023-04-15T10:15:45.327Z,14.24
2023-04-15T10:17:51.417Z,14.21
2023-04-15T10:19:55.855Z,14.06
2023-04-15T10:21:59.985Z,14.11
2023-04-15T10:24:04.583Z,14.00
2023-04-15T10:26:07.698Z,14.16
2023-04-15T10:28:11.025Z,14.08
2023-04-15T10:30:16.326Z,14.12
2023-04-15T10:32:21.710Z,14.16
2023-04-15T10:34:25.938Z,14.14
2023-04-15T10:36:28.754Z,14.06
2023-04-15T10:38:35.868Z,14.25
2023-04-15T10:40:40.689Z,14.20
2023-04-15T10:42:43.512Z,14.20
2023-04-15T10:44:51.459Z,14.29
2023-04-15T10:46:55.757Z,14.39
2023-04-15T10:48:58.766Z,14.57
2023-04-15T10:51:03.822Z,14.64
2023-04-15T10:53:06.693Z,14.64
2023-04-15T10:55:16.900Z,14.60
2023-04-15T10:57:24.465Z,14.44
2023-04-15T10:59:27.229Z,14.52
2023-04-15T11:01:52.674Z,14.66
2023-04-15T11:03:57.056Z,14.53
2023-04-15T11:05:59.960Z,14.48
2023-04-15T11:08:02.825Z,14.41
2023-04-15T11:10:55.202Z,14.35
2023-04-15T11:13:00.538Z,14.31
2023-04-15T11:15:37.685Z,14.41
2023-04-15T11:17:40.650Z,14.34
2023-04-15T11:19:44.823Z,14.30
2023-04-15T11:21:47.653Z,14.24
2023-04-15T11:23:51.114Z,14.40
2023-04-15T11:25:56.209Z,14.36
2023-04-15T11:28:00.732Z,14.26
2023-04-15T11:30:16.346Z,14.37
2023-04-15T11:32:19.278Z,14.57
2023-04-15T11:34:24.004Z,14.55
2023-04-15T11:36:28.604Z,14.60
2023-04-15T11:38:32.216Z,14.56
2023-04-15T11:40:35.788Z,14.59
2023-04-15T11:42:49.150Z,14.51
2023-04-15T11:45:07.699Z,14.51
2023-04-15T11:47:23.771Z,14.36
2023-04-15T11:49:30.855Z,14.13
2023-04-15T11:51:35.831Z,14.24
2023-04-15T11:53:41.229Z,14.23
2023-04-15T11:55:46.314Z,14.21
2023-04-15T11:57:49.135Z,14.32
2023-04-15T11:59:56.293Z,14.22
2023-04-15T12:01:59.675Z,14.25
2023-04-15T12:04:04.275Z,14.34
2023-04-15T12:06:19.390Z,14.40
2023-04-15T12:08:24.071Z,14.37
2023-04-15T12:10:26.957Z,14.26
2023-04-15T12:12:30.836Z,14.39
2023-04-15T12:14:34.722Z,14.58
2023-04-15T12:16:49.233Z,14.51
2023-04-15T12:18:55.060Z,14.55
2023-04-15T12:20:58.321Z,14.46
2023-04-15T12:23:07.066Z,14.37
2023-04-15T12:25:11.273Z,14.21
2023-04-15T12:27:15.964Z,14.38
2023-04-15T12:29:18.637Z,14.42
2023-04-15T12:31:21.511Z,14.37
2023-04-15T12:33:24.343Z,14.21
2023-04-15T12:35:27.133Z,14.17
2023-04-15T12:37:29.946Z,14.29
2023-04-15T12:39:36.331Z,14.12
2023-04-15T12:41:40.952Z,14.12
2023-04-15T12:43:46.577Z,14.27
2023-04-15T12:45:49.470Z,14.29
2023-04-15T12:47:52.347Z,14.24
2023-04-15T12:49:55.164Z,14.38
2023-04-15T12:52:00.548Z,14.20
2023-04-15T12:54:03.847Z,14.12
2023-04-15T12:56:07.746Z,14.28
2023-04-15T12:58:12.071Z,14.20
2023-04-15T13:00:15.853Z,14.21
2023-04-15T13:02:21.117Z,14.27
2023-04-15T13:04:24.197Z,14.25
2023-04-15T13:06:27.125Z,14.31
2023-04-15T13:08:29.939Z,14.41
2023-04-15T13:10:32.790Z,14.35
2023-04-15T13:12:36.679Z,14.41
2023-04-15T13:14:41.381Z,14.25
2023-04-15T13:16:44.024Z,14.40
2023-04-15T13:18:46.957Z,14.44
2023-04-15T13:20:49.752Z,14.50
2023-04-15T13:22:53.663Z,14.51
2023-04-15T13:24:56.576Z,14.36
2023-04-15T13:26:59.379Z,14.42
2023-04-15T13:29:02.400Z,14.46
2023-04-15T13:31:07.245Z,14.48
2023-04-15T13:33:10.128Z,14.42
2023-04-15T13:35:12.907Z,14.43
2023-04-15T13:37:15.813Z,14.39
2023-04-15T13:39:18.618Z,14.33
2023-04-15T13:41:21.419Z,14.30
2023-04-15T13:43:24.243Z,14.31
2023-04-15T13:45:27.252Z,14.24
2023-04-15T13:47:31.522Z,14.14
2023-04-15T13:49:34.524Z,14.35
2023-04-15T13:51:37.611Z,14.37
2023-04-15T13:53:40.460Z,14.43
2023-04-15T13:55:43.645Z,14.28
2023-04-15T13:57:46.706Z,14.27
2023-04-15T13:59:49.980Z,14.31
2023-04-15T14:01:53.023Z,14.42
2023-04-15T14:03:57.389Z,14.47
2023-04-15T14:06:00.338Z,14.54
2023-04-15T14:08:03.156Z,14.53
2023-04-15T14:10:06.842Z,14.66
2023-04-15T14:12:10.015Z,14.58
2023-04-15T14:14:16.334Z,14.37
2023-04-15T14:16:19.271Z,14.27
2023-04-15T14:18:22.091Z,14.21
2023-04-15T14:20:26.195Z,14.13
2023-04-15T14:22:29.000Z,14.07
2023-04-15T14:24:31.849Z,14.18
2023-04-15T14:26:34.699Z,14.12
2023-04-15T14:28:38.281Z,14.07
2023-04-15T14:30:41.197Z,14.05
2023-04-15T14:32:44.027Z,14.02
2023-04-15T14:34:46.843Z,13.94
2023-04-15T14:36:51.027Z,14.06
2023-04-15T14:38:53.992Z,13.86
2023-04-15T14:40:56.814Z,13.78
2023-04-15T14:42:59.617Z,13.65
2023-04-15T14:45:02.368Z,13.57
2023-04-15T14:47:05.395Z,13.48
2023-04-15T14:49:08.618Z,13.40
2023-04-15T14:51:11.411Z,13.31
2023-04-15T14:53:15.574Z,13.25
2023-04-15T14:55:18.372Z,13.15
2023-04-15T14:57:21.466Z,12.98
2023-04-15T14:59:24.355Z,13.12
2023-04-15T15:01:27.193Z,13.02
2023-04-15T15:03:30.240Z,12.97
2023-04-15T15:05:33.600Z,12.98
2023-04-15T15:07:37.272Z,12.82
2023-04-15T15:09:41.698Z,12.83
2023-04-15T15:11:44.534Z,12.67
2023-04-15T15:13:47.401Z,12.55
2023-04-15T15:15:50.457Z,12.65
2023-04-15T15:17:53.418Z,12.53
2023-04-15T15:19:56.404Z,12.60
2023-04-15T15:21:59.271Z,12.69
2023-04-15T15:24:02.252Z,12.72
2023-04-15T15:26:06.733Z,12.66
2023-04-15T15:28:09.553Z,12.49
2023-04-15T15:30:13.515Z,12.43
2023-04-15T15:32:16.328Z,12.59
2023-04-15T15:34:19.172Z,12.40
2023-04-15T15:36:22.126Z,12.43
2023-04-15T15:38:24.984Z,12.33
2023-04-15T15:40:27.827Z,12.45
2023-04-15T15:42:33.576Z,12.37
2023-04-15T15:44:38.341Z,12.27
2023-04-15T15:46:41.039Z,12.32
2023-04-15T15:48:44.002Z,12.15
2023-04-15T15:50:46.900Z,12.15
2023-04-15T15:52:49.725Z,12.03
2023-04-15T15:54:52.565Z,12.05
2023-04-15T15:56:55.369Z,12.09
2023-04-15T15:58:59.509Z,11.94
2023-04-15T16:01:02.371Z,11.94
2023-04-15T16:03:07.227Z,11.85
2023-04-15T16:05:11.380Z,11.79
2023-04-15T16:07:15.682Z,11.80
2023-04-15T16:09:18.700Z,11.70
2023-04-15T16:11:21.576Z,11.69
2023-04-15T16:13:24.423Z,11.60
2023-04-15T16:15:28.626Z,11.59
2023-04-15T16:17:31.514Z,11.60
2023-04-15T16:19:34.363Z,11.53
2023-04-15T16:21:37.225Z,11.58
2023-04-15T16:23:40.056Z,11.55
2023-04-15T16:25:44.923Z,11.49
2023-04-15T16:27:59.432Z,11.42
2023-04-15T16:30:07.200Z,11.51
2023-04-15T16:32:11.993Z,11.52
2023-04-15T16:34:17.441Z,11.42
2023-04-15T16:36:20.660Z,11.44
2023-04-15T16:38:23.508Z,11.51
2023-04-15T16:40:26.510Z,11.39
2023-04-15T16:42:30.229Z,11.40
2023-04-15T16:44:33.490Z,11.35
2023-04-15T16:46:36.358Z,11.35
2023-04-15T16:48:40.522Z,11.57
2023-04-15T16:50:43.406Z,11.45
2023-04-15T16:52:46.204Z,11.39
2023-04-15T16:54:49.063Z,11.35
2023-04-15T16:56:51.968Z,11.18
2023-04-15T16:58:54.836Z,11.30
2023-04-15T17:00:57.857Z,11.27
2023-04-15T17:03:01.658Z,11.20
2023-04-15T17:05:07.041Z,11.15
2023-04-15T17:07:10.556Z,11.04
2023-04-15T17:09:13.307Z,11.09
2023-04-15T17:11:17.293Z,11.24
2023-04-15T17:13:20.085Z,11.25
2023-04-15T17:15:22.944Z,11.22
2023-04-15T17:17:25.894Z,11.17
2023-04-15T17:19:28.694Z,11.16
2023-04-15T17:21:32.847Z,11.13
2023-04-15T17:23:35.844Z,11.04
2023-04-15T17:25:38.712Z,11.09
2023-04-15T17:27:41.619Z,10.98
2023-04-15T17:29:44.408Z,10.97
2023-04-15T17:31:47.345Z,10.90
2023-04-15T17:33:59.129Z,10.95
2023-04-15T17:36:06.690Z,10.92
2023-04-15T17:38:10.812Z,10.85
2023-04-15T17:40:14.734Z,10.86
2023-04-15T17:42:17.669Z,10.92
2023-04-15T17:44:20.530Z,10.85
2023-04-15T17:46:23.508Z,10.76
2023-04-15T17:48:26.661Z,10.70
2023-04-15T17:50:29.520Z,10.73
2023-04-15T17:52:32.337Z,10.65
2023-04-15T17:54:36.589Z,10.63
2023-04-15T17:56:39.471Z,10.56
2023-04-15T17:58:42.309Z,10.56
2023-04-15T18:00:45.177Z,10.46
2023-04-15T18:02:48.813Z,10.70
2023-04-15T18:04:51.996Z,10.70
2023-04-15T18:06:55.018Z,10.63
2023-04-15T18:08:57.819Z,10.48
2023-04-15T18:11:02.068Z,10.45
2023-04-15T18:13:04.899Z,10.49
2023-04-15T18:15:09.388Z,10.44
2023-04-15T18:17:13.428Z,10.52
2023-04-15T18:19:17.826Z,10.53
2023-04-15T18:21:20.645Z,10.32
2023-04-15T18:23:23.478Z,10.33
2023-04-15T18:25:27.409Z,10.45
2023-04-15T18:27:32.151Z,10.40
2023-04-15T18:29:36.018Z,10.36
2023-04-15T18:31:38.820Z,10.37
2023-04-15T18:33:41.670Z,10.30
2023-04-15T18:35:44.631Z,10.34
2023-04-15T18:37:47.486Z,10.42
2023-04-15T18:39:50.321Z,10.34
2023-04-15T18:41:53.104Z,10.27
2023-04-15T18:43:57.412Z,10.16
2023-04-15T18:46:01.771Z,10.26
2023-04-15T18:48:05.545Z,10.13
2023-04-15T18:50:09.293Z,10.09
2023-04-15T18:52:12.533Z,10.10
2023-04-15T18:54:15.590Z,10.11
2023-04-15T18:56:18.429Z,10.12
2023-04-15T18:58:21.191Z,10.33
2023-04-15T19:00:25.358Z,10.28
2023-04-15T19:02:28.335Z,10.07
2023-04-15T19:04:31.581Z,10.08
2023-04-15T19:06:34.631Z,9.99
2023-04-15T19:08:37.723Z,10.04
2023-04-15T19:10:40.664Z,10.08
2023-04-15T19:12:44.708Z,10.22
2023-04-15T19:14:47.523Z,10.20
2023-04-15T19:16:51.780Z,10.24
2023-04-15T19:18:54.699Z,10.18
2023-04-15T19:20:57.973Z,10.12
2023-04-15T19:23:01.045Z,10.07
2023-04-15T19:25:03.810Z,10.12
2023-04-15T19:27:06.626Z,10.19
2023-04-15T19:29:09.379Z,10.23
2023-04-15T19:31:12.285Z,10.18
2023-04-15T19:33:16.510Z,10.25
2023-04-15T19:35:19.389Z,10.20
2023-04-15T19:37:22.285Z,10.20
2023-04-15T19:39:25.188Z,10.07
2023-04-15T19:41:28.167Z,10.07
2023-04-15T19:43:32.188Z,10.01
2023-04-15T19:45:35.202Z,10.01
2023-04-15T19:47:38.188Z,10.04
2023-04-15T19:49:42.588Z,10.18
2023-04-15T19:51:45.485Z,10.09
2023-04-15T19:53:49.493Z,10.08
2023-04-15T19:55:52.381Z,10.03
2023-04-15T19:57:55.284Z,10.00
2023-04-15T19:59:58.062Z,10.14
2023-04-15T20:02:00.979Z,9.99
2023-04-15T20:04:04.325Z,10.03
2023-04-15T20:06:08.713Z,9.99
2023-04-15T20:08:11.856Z,9.90
2023-04-15T20:10:14.761Z,9.85
2023-04-15T20:12:49.232Z,9.90
2023-04-15T20:14:40.565Z,9.95
2023-04-15T20:16:43.531Z,9.95
2023-04-15T20:18:46.332Z,10.05
2023-04-15T20:20:49.131Z,10.04
2023-04-15T20:22:53.702Z,9.98
2023-04-15T20:24:56.588Z,9.91
2023-04-15T20:26:59.439Z,9.96
2023-04-15T20:29:02.531Z,9.91
2023-04-15T20:31:05.482Z,9.99
2023-04-15T20:33:08.865Z,10.08
2023-04-15T20:35:11.709Z,9.85
2023-04-15T20:37:14.612Z,9.95
2023-04-15T20:39:18.922Z,9.91
2023-04-15T20:41:23.123Z,9.91
2023-04-15T20:43:26.227Z,9.86
2023-04-15T20:45:29.019Z,9.77
2023-04-15T20:47:31.860Z,9.94
2023-04-15T20:49:35.860Z,9.92
2023-04-15T20:51:38.622Z,9.90
2023-04-15T20:53:41.975Z,9.85
2023-04-15T20:55:46.126Z,9.85
2023-04-15T20:57:49.407Z,9.82
2023-04-15T20:59:52.257Z,9.83
2023-04-15T21:01:56.940Z,9.95
2023-04-15T21:03:59.962Z,9.87
2023-04-15T21:06:02.749Z,9.86
2023-04-15T21:08:05.920Z,9.91
2023-04-15T21:10:09.163Z,9.93
2023-04-15T21:12:13.545Z,10.04
2023-04-15T21:14:16.734Z,9.95
2023-04-15T21:16:19.633Z,9.91
2023-04-15T21:18:22.945Z,9.91
2023-04-15T21:20:25.767Z,9.87
2023-04-15T21:22:28.679Z,9.91
2023-04-15T21:24:31.493Z,9.85
2023-04-15T21:26:35.813Z,9.93
2023-04-15T21:28:39.963Z,9.95
2023-04-15T21:30:42.779Z,9.86
2023-04-15T21:32:45.714Z,9.81
2023-04-15T21:34:48.816Z,9.93
2023-04-15T21:36:51.689Z,9.97
2023-04-15T21:38:54.920Z,10.03
2023-04-15T21:40:58.081Z,10.04
2023-04-15T21:43:01.021Z,10.00
2023-04-15T21:45:05.847Z,9.90
2023-04-15T21:47:08.511Z,9.90
2023-04-15T21:49:11.702Z,9.88
2023-04-15T21:51:14.478Z,10.01
2023-04-15T21:53:17.530Z,10.07
2023-04-15T21:55:21.063Z,10.11
2023-04-15T21:57:23.874Z,10.03
2023-04-15T21:59:27.164Z,10.02
2023-04-15T22:01:31.478Z,10.24
2023-04-15T22:03:36.137Z,10.26
2023-04-15T22:05:39.051Z,10.20
2023-04-15T22:07:43.079Z,10.12
2023-04-15T22:09:46.419Z,9.99
2023-04-15T22:11:49.421Z,10.04
2023-04-15T22:13:52.220Z,10.07
2023-04-15T22:15:55.040Z,10.21
2023-04-15T22:18:00.433Z,10.21
2023-04-15T22:20:03.659Z,10.25
2023-04-15T22:22:06.554Z,10.10
2023-04-15T22:24:34.403Z,10.25
2023-04-15T22:26:32.450Z,10.18
2023-04-15T22:28:35.249Z,10.20
2023-04-15T22:30:38.756Z,10.06
2023-04-15T22:32:41.632Z,10.20
2023-04-15T22:34:45.988Z,10.11
2023-04-15T22:36:48.953Z,9.99
2023-04-15T22:38:51.792Z,9.96
2023-04-15T22:40:54.948Z,9.95
2023-04-15T22:42:57.921Z,10.01
2023-04-15T22:45:00.773Z,10.03
2023-04-15T22:47:03.593Z,10.09
2023-04-15T22:49:09.145Z,10.09
2023-04-15T22:51:13.223Z,10.18
2023-04-15T22:53:17.105Z,10.17
2023-04-15T22:55:20.000Z,10.18
2023-04-15T22:57:22.787Z,10.19
2023-04-15T22:59:25.732Z,10.17
2023-04-15T23:01:28.526Z,10.09
2023-04-15T23:03:31.515Z,10.11
2023-04-15T23:05:34.500Z,10.22
2023-04-15T23:07:38.654Z,10.35
2023-04-15T23:09:41.470Z,10.34
2023-04-15T23:11:44.360Z,10.21
2023-04-15T23:13:47.186Z,10.38
2023-04-15T23:15:50.081Z,10.24
2023-04-15T23:17:52.974Z,10.12
2023-04-15T23:19:55.787Z,10.11
2023-04-15T23:21:58.666Z,10.14
2023-04-15T23:24:02.843Z,10.17
2023-04-15T23:26:06.250Z,10.12
2023-04-15T23:28:09.164Z,10.16
2023-04-15T23:30:12.064Z,10.08
2023-04-15T23:32:14.845Z,10.27
2023-04-15T23:34:17.677Z,10.12
2023-04-15T23:36:20.528Z,10.10
2023-04-15T23:38:23.315Z,10.07
2023-04-15T23:40:27.463Z,10.08
2023-04-15T23:42:30.277Z,9.97
2023-04-15T23:44:34.177Z,10.02
2023-04-15T23:46:37.013Z,10.10
2023-04-15T23:48:40.577Z,10.08
2023-04-15T23:50:43.397Z,10.11
2023-04-15T23:52:46.119Z,10.14
2023-04-15T23:54:48.961Z,9.96
2023-04-15T23:56:53.199Z,10.02
2023-04-15T23:58:55.975Z,10.01
